createdAt,value
2023-05-19T00:01:41.182Z,0
2023-05-19T00:05:28.762Z,0
2023-05-19T00:09:17.379Z,0
2023-05-19T00:13:05.900Z,0
2023-05-19T00:15:38.295Z,0
2023-05-19T00:16:54.489Z,0
2023-05-19T00:20:43.104Z,0
2023-05-19T00:24:30.691Z,0
2023-05-19T00:28:19.257Z,0
2023-05-19T00:32:07.839Z,0
2023-05-19T00:33:24.018Z,0
2023-05-19T00:35:56.401Z,0
2023-05-19T00:39:44.977Z,0
2023-05-19T00:43:32.605Z,0
2023-05-19T00:47:21.173Z,0
2023-05-19T00:51:09.747Z,0
2023-05-19T00:54:58.374Z,0
2023-05-19T00:58:46.949Z,0
2023-05-19T01:02:34.533Z,0
2023-05-19T01:06:23.093Z,0
2023-05-19T01:07:39.295Z,0
2023-05-19T01:10:11.665Z,0
2023-05-19T01:12:44.064Z,0
2023-05-19T01:14:00.296Z,0
2023-05-19T01:16:32.636Z,0
2023-05-19T01:17:47.918Z,0
2023-05-19T01:19:04.067Z,0
2023-05-19T01:21:36.441Z,0
2023-05-19T01:24:08.825Z,0
2023-05-19T01:25:25.019Z,0
2023-05-19T01:26:41.202Z,0
2023-05-19T01:29:13.596Z,0
2023-05-19T01:30:29.776Z,0
2023-05-19T01:33:02.161Z,0
2023-05-19T01:35:34.560Z,0
2023-05-19T01:36:49.839Z,0
2023-05-19T01:38:05.981Z,0
2023-05-19T01:40:38.369Z,0
2023-05-19T01:41:54.561Z,0
2023-05-19T01:44:26.988Z,0
2023-05-19T01:46:59.321Z,0
2023-05-19T01:48:15.523Z,0
2023-05-19T01:49:31.722Z,0
2023-05-19T01:52:04.096Z,0
2023-05-19T01:53:19.330Z,0
2023-05-19T01:54:35.519Z,0
2023-05-19T01:55:51.760Z,0
2023-05-19T01:58:24.111Z,0
2023-05-19T01:59:40.295Z,0
2023-05-19T02:03:28.875Z,0
2023-05-19T02:04:45.052Z,0
2023-05-19T02:07:17.440Z,0
2023-05-19T02:09:49.834Z,0
2023-05-19T02:11:05.074Z,0
2023-05-19T02:14:53.636Z,0
2023-05-19T02:16:09.836Z,0
2023-05-19T02:18:42.213Z,0
2023-05-19T02:21:14.591Z,0
2023-05-19T02:22:30.777Z,0
2023-05-19T02:26:19.362Z,0
2023-05-19T02:27:34.595Z,0
2023-05-19T02:28:50.793Z,0
2023-05-19T02:30:06.992Z,0
2023-05-19T02:32:39.372Z,0
2023-05-19T02:33:55.567Z,0
2023-05-19T02:37:44.143Z,0
2023-05-19T02:39:00.324Z,0
2023-05-19T02:41:32.751Z,0
2023-05-19T02:44:05.093Z,0
2023-05-19T02:45:20.331Z,0
2023-05-19T02:46:36.525Z,0
2023-05-19T02:47:52.714Z,0
2023-05-19T02:49:08.948Z,0
2023-05-19T02:50:25.103Z,0
2023-05-19T02:51:41.296Z,0
2023-05-19T02:52:57.476Z,0
2023-05-19T02:54:13.681Z,0
2023-05-19T02:55:29.857Z,0
2023-05-19T02:56:46.052Z,0
2023-05-19T02:58:02.245Z,0
2023-05-19T03:00:34.672Z,0
2023-05-19T03:01:49.869Z,0
2023-05-19T03:03:06.062Z,0
2023-05-19T03:04:22.239Z,0
2023-05-19T03:06:54.623Z,0
2023-05-19T03:08:10.868Z,0
2023-05-19T03:09:27.023Z,0
2023-05-19T03:10:43.214Z,0
2023-05-19T03:11:59.392Z,0
2023-05-19T03:13:15.585Z,0
2023-05-19T03:14:31.784Z,0
2023-05-19T03:15:47.051Z,0
2023-05-19T03:17:03.227Z,0
2023-05-19T03:18:19.424Z,0
2023-05-19T03:19:35.605Z,0
2023-05-19T03:20:51.811Z,0
2023-05-19T03:22:07.994Z,0
2023-05-19T03:23:24.191Z,0
2023-05-19T03:24:40.427Z,0
2023-05-19T03:27:12.774Z,0
2023-05-19T03:31:01.338Z,0
2023-05-19T03:34:48.955Z,0
2023-05-19T03:38:37.541Z,4
2023-05-19T03:42:26.113Z,0
2023-05-19T03:46:14.681Z,4
2023-05-19T03:50:03.269Z,4
2023-05-19T03:53:50.891Z,4
2023-05-19T03:57:39.503Z,4
2023-05-19T04:00:11.848Z,4
2023-05-19T04:01:28.039Z,4
2023-05-19T04:05:16.611Z,8
2023-05-19T04:09:05.191Z,8
2023-05-19T04:11:36.618Z,4
2023-05-19T04:12:52.791Z,4
2023-05-19T04:16:41.379Z,4
2023-05-19T04:17:57.567Z,8
2023-05-19T04:20:29.949Z,8
2023-05-19T04:24:18.519Z,8
2023-05-19T04:28:07.108Z,8
2023-05-19T04:31:54.731Z,8
2023-05-19T04:34:27.112Z,8
2023-05-19T04:35:43.344Z,8
2023-05-19T04:39:31.867Z,8
2023-05-19T04:45:52.818Z,8
2023-05-19T04:47:08.068Z,8
2023-05-19T04:50:56.638Z,8
2023-05-19T04:54:45.265Z,8
2023-05-19T04:58:33.781Z,8
2023-05-19T05:02:22.367Z,12
2023-05-19T05:06:10.988Z,8
2023-05-19T05:09:59.509Z,8
2023-05-19T05:13:47.185Z,12
2023-05-19T05:17:35.699Z,12
2023-05-19T05:21:24.288Z,12
2023-05-19T05:25:12.909Z,8
2023-05-19T05:29:01.433Z,12
2023-05-19T05:32:49.106Z,12
2023-05-19T05:36:37.625Z,8
2023-05-19T05:40:26.213Z,8
2023-05-19T05:44:14.771Z,16
2023-05-19T05:48:03.356Z,12
2023-05-19T05:51:50.983Z,16
2023-05-19T05:55:39.554Z,20
2023-05-19T06:03:16.699Z,16
2023-05-19T06:07:05.275Z,24
2023-05-19T06:10:52.887Z,16
2023-05-19T06:12:09.080Z,20
2023-05-19T06:14:41.472Z,24
2023-05-19T06:22:18.620Z,28
2023-05-19T06:26:07.185Z,28
2023-05-19T06:29:55.821Z,24
2023-05-19T06:33:44.339Z,24
2023-05-19T06:41:20.538Z,20
2023-05-19T06:45:09.124Z,24
2023-05-19T06:48:57.693Z,28
2023-05-19T06:52:46.261Z,28
2023-05-19T06:56:33.879Z,28
2023-05-19T07:00:22.463Z,28
2023-05-19T07:04:11.044Z,32
2023-05-19T07:06:43.411Z,32
2023-05-19T07:07:59.663Z,32
2023-05-19T07:11:48.195Z,32
2023-05-19T07:15:36.765Z,36
2023-05-19T07:19:25.341Z,44
2023-05-19T07:27:01.534Z,52
2023-05-19T07:30:50.105Z,28
2023-05-19T07:34:37.748Z,36
2023-05-19T07:38:26.312Z,56
2023-05-19T07:46:03.463Z,64
2023-05-19T07:49:51.114Z,56
2023-05-19T07:53:39.677Z,52
2023-05-19T07:57:28.316Z,60
2023-05-19T07:58:43.529Z,60
2023-05-19T08:01:15.913Z,60
2023-05-19T08:05:04.484Z,64
2023-05-19T08:12:41.683Z,60
2023-05-19T08:16:30.199Z,60
2023-05-19T08:20:17.832Z,64
2023-05-19T08:21:34.007Z,60
2023-05-19T08:24:06.391Z,60
2023-05-19T08:26:38.791Z,80
2023-05-19T08:27:54.968Z,80
2023-05-19T08:31:43.539Z,84
2023-05-19T08:35:32.178Z,80
2023-05-19T08:38:03.552Z,72
2023-05-19T08:39:19.755Z,80
2023-05-19T08:43:08.311Z,56
2023-05-19T08:50:45.524Z,96
2023-05-19T08:54:34.037Z,40
2023-05-19T09:02:10.229Z,52
2023-05-19T09:17:24.535Z,92
2023-05-19T09:21:13.169Z,88
2023-05-19T09:28:50.257Z,92
2023-05-19T09:32:38.836Z,80
2023-05-19T09:40:15.030Z,80
2023-05-19T09:47:52.172Z,56
2023-05-19T09:55:29.327Z,88
2023-05-19T09:58:01.000Z,44
2023-05-19T09:59:17.894Z,88
2023-05-19T10:18:20.835Z,80
2023-05-19T10:20:53.270Z,84
2023-05-19T10:22:08.672Z,80
2023-05-19T10:23:24.978Z,84
2023-05-19T10:27:13.857Z,76
2023-05-19T10:29:46.435Z,72
2023-05-19T10:32:19.094Z,84
2023-05-19T10:34:51.683Z,56
2023-05-19T10:37:24.218Z,60
2023-05-19T10:42:29.449Z,40
2023-05-19T10:47:34.627Z,76
2023-05-19T10:55:12.393Z,76
2023-05-19T10:57:44.930Z,56
2023-05-19T11:00:17.516Z,60
2023-05-19T11:07:55.271Z,72
2023-05-19T11:09:11.697Z,84
2023-05-19T11:10:27.994Z,76
2023-05-19T11:13:00.636Z,64
2023-05-19T11:18:05.762Z,64
2023-05-19T11:20:38.342Z,72
2023-05-19T11:23:10.928Z,60
2023-05-19T11:28:16.102Z,72
2023-05-19T11:33:21.276Z,56
2023-05-19T11:34:37.575Z,56
2023-05-19T11:38:25.583Z,40
2023-05-19T11:43:30.824Z,60
2023-05-19T11:46:03.355Z,36
2023-05-19T11:48:35.932Z,36
2023-05-19T11:53:41.108Z,52
2023-05-19T11:58:45.419Z,64
2023-05-19T12:03:50.595Z,40
2023-05-19T12:06:23.172Z,36
2023-05-19T12:08:55.783Z,36
2023-05-19T12:14:00.942Z,36
2023-05-19T12:19:05.260Z,96
2023-05-19T12:24:10.510Z,52
2023-05-19T12:27:58.465Z,68
2023-05-19T12:29:14.768Z,48
2023-05-19T12:34:19.150Z,36
2023-05-19T12:36:51.677Z,32
2023-05-19T12:39:23.397Z,56
2023-05-19T12:44:28.579Z,60
2023-05-19T12:47:00.317Z,68
2023-05-19T12:48:15.744Z,68
2023-05-19T12:49:32.109Z,48
2023-05-19T12:52:04.626Z,68
2023-05-19T12:54:37.230Z,68
2023-05-19T12:55:53.524Z,68
2023-05-19T12:57:09.814Z,32
2023-05-19T12:59:42.390Z,44
2023-05-19T13:02:14.989Z,32
2023-05-19T13:03:31.289Z,28
2023-05-19T13:04:46.763Z,32
2023-05-19T13:07:19.290Z,68
2023-05-19T13:08:35.586Z,56
2023-05-19T13:09:51.875Z,40
2023-05-19T13:12:24.454Z,28
2023-05-19T13:14:57.057Z,28
2023-05-19T13:17:29.660Z,44
2023-05-19T13:18:45.938Z,60
2023-05-19T13:20:02.296Z,36
2023-05-19T13:21:18.514Z,56
2023-05-19T13:22:34.931Z,32
2023-05-19T13:25:07.535Z,64
2023-05-19T13:28:56.409Z,64
2023-05-19T13:30:12.706Z,36
2023-05-19T13:32:45.292Z,36
2023-05-19T13:34:01.584Z,24
2023-05-19T13:35:17.880Z,24
2023-05-19T13:36:34.169Z,24
2023-05-19T13:37:50.472Z,24
2023-05-19T13:40:22.250Z,28
2023-05-19T13:41:38.468Z,40
2023-05-19T13:42:54.769Z,44
2023-05-19T13:45:27.363Z,40
2023-05-19T13:47:59.959Z,28
2023-05-19T13:50:32.530Z,24
2023-05-19T13:53:05.130Z,24
2023-05-19T13:55:37.721Z,24
2023-05-19T13:58:09.432Z,16
2023-05-19T14:00:42.025Z,16
2023-05-19T14:03:14.612Z,20
2023-05-19T14:04:30.888Z,24
2023-05-19T14:05:47.197Z,24
2023-05-19T14:07:03.493Z,24
2023-05-19T14:08:19.788Z,24
2023-05-19T14:10:52.366Z,24
2023-05-19T14:12:08.662Z,32
2023-05-19T14:13:24.081Z,36
2023-05-19T14:15:56.738Z,32
2023-05-19T14:17:12.967Z,20
2023-05-19T14:18:29.327Z,20
2023-05-19T14:19:45.551Z,20
2023-05-19T14:21:01.838Z,20
2023-05-19T14:22:18.131Z,20
2023-05-19T14:23:34.434Z,20
2023-05-19T14:26:07.031Z,24
2023-05-19T14:28:39.683Z,36
2023-05-19T14:32:27.621Z,100
2023-05-19T14:36:16.571Z,80
2023-05-19T14:40:05.388Z,68
2023-05-19T14:41:21.748Z,68
2023-05-19T14:43:54.270Z,64
2023-05-19T14:45:10.567Z,60
2023-05-19T14:46:26.048Z,56
2023-05-19T14:51:31.147Z,48
2023-05-19T14:54:03.734Z,48
2023-05-19T14:56:36.332Z,52
2023-05-19T14:59:08.910Z,60
2023-05-19T15:01:41.515Z,60
2023-05-19T15:04:13.209Z,56
2023-05-19T15:06:45.812Z,48
2023-05-19T15:08:02.099Z,44
2023-05-19T15:09:18.404Z,40
2023-05-19T15:11:50.996Z,36
2023-05-19T15:14:23.582Z,32
2023-05-19T15:16:56.160Z,32
2023-05-19T15:19:28.743Z,32
2023-05-19T15:20:45.049Z,32
2023-05-19T15:22:00.534Z,36
2023-05-19T15:24:33.062Z,36
2023-05-19T15:29:38.000Z,48
2023-05-19T15:32:10.813Z,52
2023-05-19T15:33:27.120Z,52
2023-05-19T15:34:43.397Z,52
2023-05-19T15:37:15.992Z,64
2023-05-19T15:38:31.415Z,64
2023-05-19T15:39:47.716Z,64
2023-05-19T15:42:20.293Z,60
2023-05-19T15:44:52.878Z,52
2023-05-19T15:47:25.463Z,44
2023-05-19T15:48:41.768Z,40
2023-05-19T15:49:58.064Z,36
2023-05-19T15:52:30.642Z,36
2023-05-19T15:55:03.232Z,32
2023-05-19T15:57:34.958Z,32
2023-05-19T15:58:51.244Z,32
2023-05-19T16:00:07.547Z,32
2023-05-19T16:01:23.000Z,36
2023-05-19T16:02:40.126Z,36
2023-05-19T16:03:56.427Z,40
2023-05-19T16:05:12.725Z,36
2023-05-19T16:07:45.308Z,36
2023-05-19T16:09:01.604Z,32
2023-05-19T16:10:17.888Z,28
2023-05-19T16:12:50.556Z,28
2023-05-19T16:17:54.856Z,28
2023-05-19T16:19:11.086Z,28
2023-05-19T16:20:27.372Z,24
2023-05-19T16:21:43.676Z,28
2023-05-19T16:22:59.964Z,28
2023-05-19T16:24:16.260Z,28
2023-05-19T16:25:32.550Z,32
2023-05-19T16:26:48.845Z,32
2023-05-19T16:28:05.136Z,32
2023-05-19T16:29:21.438Z,32
2023-05-19T16:30:37.853Z,28
2023-05-19T16:33:10.441Z,32
2023-05-19T16:34:26.731Z,28
2023-05-19T16:35:43.036Z,28
2023-05-19T16:36:59.309Z,32
2023-05-19T16:38:15.607Z,28
2023-05-19T16:39:31.905Z,28
2023-05-19T16:40:48.204Z,28
2023-05-19T16:43:20.802Z,28
2023-05-19T16:44:37.091Z,28
2023-05-19T16:45:53.388Z,28
2023-05-19T16:50:57.685Z,24
2023-05-19T16:53:30.345Z,24
2023-05-19T16:54:46.562Z,20
2023-05-19T16:56:02.866Z,20
2023-05-19T16:58:35.447Z,20
2023-05-19T17:01:08.046Z,20
2023-05-19T17:02:24.326Z,20
2023-05-19T17:03:39.842Z,20
2023-05-19T17:04:56.057Z,20
2023-05-19T17:06:12.354Z,20
2023-05-19T17:07:28.648Z,20
2023-05-19T17:08:44.942Z,20
2023-05-19T17:11:17.537Z,20
2023-05-19T17:13:50.130Z,16
2023-05-19T17:16:22.718Z,16
2023-05-19T17:17:38.996Z,20
2023-05-19T17:18:55.298Z,20
2023-05-19T17:20:10.719Z,16
2023-05-19T17:21:27.007Z,16
2023-05-19T17:23:59.604Z,16
2023-05-19T17:25:15.883Z,16
2023-05-19T17:26:32.187Z,16
2023-05-19T17:27:48.478Z,16
2023-05-19T17:29:04.853Z,16
2023-05-19T17:30:21.064Z,16
2023-05-19T17:31:37.356Z,16
2023-05-19T17:32:53.667Z,16
2023-05-19T17:34:09.962Z,20
2023-05-19T17:36:42.544Z,20
2023-05-19T17:37:57.957Z,20
2023-05-19T17:39:14.261Z,20
2023-05-19T17:41:46.832Z,20
2023-05-19T17:43:03.138Z,20
2023-05-19T17:44:19.508Z,20
2023-05-19T17:45:35.733Z,20
2023-05-19T17:46:52.014Z,20
2023-05-19T17:48:08.309Z,20
2023-05-19T17:49:24.605Z,20
2023-05-19T17:50:40.902Z,16
2023-05-19T17:51:57.200Z,16
2023-05-19T17:53:13.490Z,16
2023-05-19T17:54:28.917Z,16
2023-05-19T17:55:45.205Z,16
2023-05-19T17:57:01.496Z,16
2023-05-19T17:58:17.783Z,16
2023-05-19T17:59:34.085Z,16
2023-05-19T18:00:50.386Z,12
2023-05-19T18:02:06.667Z,12
2023-05-19T18:03:22.125Z,16
2023-05-19T18:04:37.549Z,16
2023-05-19T18:05:53.848Z,12
2023-05-19T18:07:10.143Z,12
2023-05-19T18:08:26.426Z,12
2023-05-19T18:09:42.802Z,12
2023-05-19T18:10:59.021Z,12
2023-05-19T18:12:15.310Z,12
2023-05-19T18:13:31.610Z,12
2023-05-19T18:14:47.911Z,12
2023-05-19T18:16:03.355Z,8
2023-05-19T18:17:18.780Z,8
2023-05-19T18:18:35.067Z,12
2023-05-19T18:19:51.368Z,12
2023-05-19T18:21:07.664Z,8
2023-05-19T18:22:23.960Z,8
2023-05-19T18:23:40.238Z,8
2023-05-19T18:24:56.534Z,12
2023-05-19T18:27:29.136Z,8
2023-05-19T18:28:45.430Z,8
2023-05-19T18:30:01.728Z,4
2023-05-19T18:31:18.013Z,8
2023-05-19T18:32:34.295Z,8
2023-05-19T18:33:49.718Z,4
2023-05-19T18:35:06.095Z,4
2023-05-19T18:36:22.317Z,4
2023-05-19T18:37:38.601Z,8
2023-05-19T18:38:54.888Z,4
2023-05-19T18:40:11.196Z,4
2023-05-19T18:41:27.493Z,4
2023-05-19T18:42:43.773Z,4
2023-05-19T18:45:16.366Z,4
2023-05-19T18:46:32.659Z,0
2023-05-19T18:47:48.966Z,4
2023-05-19T18:50:21.548Z,0
2023-05-19T18:51:37.015Z,0
2023-05-19T18:52:52.419Z,0
2023-05-19T18:56:41.299Z,0
2023-05-19T18:57:57.594Z,0
2023-05-19T19:00:30.186Z,0
2023-05-19T19:03:02.770Z,0
2023-05-19T19:05:35.359Z,0
2023-05-19T19:06:51.664Z,0
2023-05-19T19:08:07.956Z,0
2023-05-19T19:10:39.745Z,0
2023-05-19T19:11:55.115Z,0
2023-05-19T19:13:10.533Z,0
2023-05-19T19:14:26.822Z,0
2023-05-19T19:15:43.129Z,0
2023-05-19T19:16:59.409Z,0
2023-05-19T19:18:15.706Z,0
2023-05-19T19:19:32.017Z,0
2023-05-19T19:20:48.384Z,0
2023-05-19T19:22:04.606Z,0
2023-05-19T19:23:20.887Z,0
2023-05-19T19:25:52.647Z,0
2023-05-19T19:27:08.060Z,0
2023-05-19T19:28:24.350Z,0
2023-05-19T19:30:56.990Z,0
2023-05-19T19:32:13.295Z,0
2023-05-19T19:33:29.592Z,0
2023-05-19T19:36:02.202Z,0
2023-05-19T19:37:18.474Z,0
2023-05-19T19:38:34.750Z,0
2023-05-19T19:41:07.353Z,0
2023-05-19T19:43:39.941Z,0
2023-05-19T19:46:11.652Z,0
2023-05-19T19:48:44.235Z,0
2023-05-19T19:51:16.819Z,0
2023-05-19T19:56:22.011Z,0
2023-05-19T19:58:54.586Z,0
2023-05-19T20:01:27.185Z,0
2023-05-19T20:03:58.892Z,0
2023-05-19T20:09:04.066Z,0
2023-05-19T20:11:36.665Z,0
2023-05-19T20:12:52.941Z,0
2023-05-19T20:14:09.242Z,0
2023-05-19T20:16:41.867Z,0
2023-05-19T20:19:14.432Z,0
2023-05-19T20:21:46.132Z,0
2023-05-19T20:23:02.437Z,0
2023-05-19T20:24:18.722Z,0
2023-05-19T20:26:51.304Z,0
2023-05-19T20:28:07.594Z,0
2023-05-19T20:29:23.908Z,0
2023-05-19T20:30:40.190Z,0
2023-05-19T20:31:56.492Z,0
2023-05-19T20:34:29.078Z,0
2023-05-19T20:37:01.698Z,0
2023-05-19T20:39:33.384Z,0
2023-05-19T20:42:05.997Z,0
2023-05-19T20:44:38.558Z,0
2023-05-19T20:49:43.734Z,0
2023-05-19T20:52:16.311Z,0
2023-05-19T20:54:48.918Z,0
2023-05-19T20:57:20.653Z,0
2023-05-19T20:59:53.207Z,0
2023-05-19T21:01:09.508Z,0
2023-05-19T21:02:25.789Z,0
2023-05-19T21:07:31.009Z,0
2023-05-19T21:10:03.563Z,0
2023-05-19T21:12:36.148Z,0
2023-05-19T21:15:07.871Z,0
2023-05-19T21:17:40.485Z,0
2023-05-19T21:18:55.897Z,0
2023-05-19T21:20:12.184Z,0
2023-05-19T21:22:44.776Z,0
2023-05-19T21:25:17.348Z,0
2023-05-19T21:27:49.940Z,0
2023-05-19T21:30:22.540Z,0
2023-05-19T21:32:55.125Z,0
2023-05-19T21:35:27.717Z,0
2023-05-19T21:36:43.126Z,0
2023-05-19T21:37:59.431Z,0
2023-05-19T21:40:32.016Z,0
2023-05-19T21:43:04.605Z,0
2023-05-19T21:45:37.180Z,0
2023-05-19T21:46:53.476Z,0
2023-05-19T21:48:09.782Z,0
2023-05-19T21:50:42.404Z,0
2023-05-19T21:53:14.946Z,0
2023-05-19T21:54:30.364Z,0
2023-05-19T21:55:46.675Z,0
2023-05-19T21:58:19.292Z,0
2023-05-19T22:00:51.851Z,0
2023-05-19T22:02:08.134Z,0
2023-05-19T22:03:24.429Z,0
2023-05-19T22:05:57.016Z,0
2023-05-19T22:08:29.647Z,0
2023-05-19T22:09:45.907Z,0
2023-05-19T22:11:02.208Z,0
2023-05-19T22:13:33.914Z,0
2023-05-19T22:16:06.503Z,0
2023-05-19T22:18:39.078Z,0
2023-05-19T22:19:55.378Z,0
2023-05-19T22:21:11.680Z,0
2023-05-19T22:23:44.265Z,0
2023-05-19T22:26:16.856Z,0
2023-05-19T22:28:49.433Z,0
2023-05-19T22:31:21.146Z,0
2023-05-19T22:33:53.746Z,0
2023-05-19T22:36:26.325Z,0
2023-05-19T22:38:58.917Z,0
2023-05-19T22:41:31.494Z,0
2023-05-19T22:42:47.809Z,0
2023-05-19T22:44:04.133Z,0
2023-05-19T22:46:36.676Z,0
2023-05-19T22:49:08.433Z,0
2023-05-19T22:51:40.986Z,0
2023-05-19T22:54:13.572Z,0
2023-05-19T22:56:46.163Z,0
2023-05-19T22:58:02.450Z,0
2023-05-19T22:59:18.752Z,0
2023-05-19T23:01:51.331Z,0
2023-05-19T23:04:23.918Z,0
2023-05-19T23:06:55.627Z,0
2023-05-19T23:09:28.264Z,0
2023-05-19T23:12:00.801Z,0
2023-05-19T23:14:33.390Z,0
2023-05-19T23:17:05.994Z,0
2023-05-19T23:19:38.587Z,0
2023-05-19T23:20:54.874Z,0
2023-05-19T23:24:42.918Z,0
2023-05-19T23:25:59.173Z,0
2023-05-19T23:27:15.471Z,0
2023-05-19T23:29:48.054Z,0
2023-05-19T23:31:04.346Z,0
2023-05-19T23:32:20.632Z,0
2023-05-19T23:34:53.223Z,0
2023-05-19T23:36:09.520Z,0
2023-05-19T23:37:25.819Z,0
2023-05-19T23:39:57.540Z,0
2023-05-19T23:41:13.822Z,0
2023-05-19T23:42:30.113Z,0
2023-05-19T23:45:02.711Z,0
2023-05-19T23:47:35.288Z,0
2023-05-19T23:48:51.583Z,0
2023-05-19T23:50:07.874Z,0
2023-05-19T23:52:40.475Z,0
2023-05-19T23:55:13.066Z,0
2023-05-19T23:56:28.467Z,0
2023-05-19T23:57:44.762Z,0
2023-05-19T23:59:01.067Z,0
